Time;durP1;ratioP1;P1;durP2;ratioP2;P2;SDS_P1;SDS_P2;PMS_P1;PMS_P2;Temp;Humidity;BMP_temperature;BMP_pressure;BME280_temperature;BME280_humidity;BME280_pressure;Samples;Min_cycle;Max_cycle;Signal;HPM_P1;HPM_P2
2023/09/26 00:01:41;;;;;;;2.33;2.20;;;;;;;13.58;56.82;102138.53;5037797;27;97117;-54
2023/09/26 00:04:07;;;;;;;1.90;1.80;;;;;;;13.58;56.78;102127.47;5035800;27;96778;-54
2023/09/26 00:06:32;;;;;;;1.70;1.60;;;;;;;13.54;56.72;102131.16;5033061;27;96840;-55
2023/09/26 00:08:58;;;;;;;1.80;1.70;;;;;;;13.53;56.85;102131.66;5036259;27;97773;-55
2023/09/26 00:11:24;;;;;;;1.97;1.87;;;;;;;13.52;57.04;102136.41;5035028;27;97153;-55
2023/09/26 00:13:49;;;;;;;3.30;2.17;;;;;;;13.52;56.96;102135.66;5033799;27;97185;-55
2023/09/26 00:16:15;;;;;;;1.90;1.80;;;;;;;13.49;56.67;102131.09;5038053;27;97146;-55
2023/09/26 00:18:42;;;;;;;2.60;2.00;;;;;;;13.47;56.95;102128.81;5037999;27;97312;-55
2023/09/26 00:21:10;;;;;;;1.83;1.73;;;;;;;13.44;57.06;102140.81;5037672;27;97149;-55
2023/09/26 00:23:36;;;;;;;1.70;1.60;;;;;;;13.43;56.96;102127.47;5032467;27;97191;-55
2023/09/26 00:26:04;;;;;;;2.73;2.03;;;;;;;13.40;56.91;102133.94;5035189;27;96679;-55
2023/09/26 00:28:29;;;;;;;3.57;1.80;;;;;;;13.36;57.22;102139.66;5037177;27;97759;-55
2023/09/26 00:30:56;;;;;;;1.77;1.67;;;;;;;13.35;57.30;102140.13;5037728;27;97174;-54
2023/09/26 00:33:22;;;;;;;2.00;1.90;;;;;;;13.35;57.29;102134.59;5040154;27;97189;-55
2023/09/26 00:35:47;;;;;;;2.03;1.93;;;;;;;13.34;57.17;102128.31;5038063;27;97341;-55
2023/09/26 00:38:13;;;;;;;2.00;1.90;;;;;;;13.32;57.12;102128.00;5037846;27;106054;-55
2023/09/26 00:40:42;;;;;;;1.40;1.40;;;;;;;13.30;57.25;102113.91;5036229;27;97303;-54
2023/09/26 00:43:08;;;;;;;2.10;2.00;;;;;;;13.26;57.30;102126.38;5033081;27;97529;-54
2023/09/26 00:45:35;;;;;;;1.80;1.70;;;;;;;13.23;57.33;102130.88;5034755;27;97206;-54
2023/09/26 00:48:01;;;;;;;2.10;2.00;;;;;;;13.21;57.21;102127.84;5034665;27;97164;-54
2023/09/26 00:50:27;;;;;;;1.90;1.80;;;;;;;13.17;57.38;102118.19;5036130;27;97124;-54
2023/09/26 00:52:53;;;;;;;1.80;1.70;;;;;;;13.17;57.55;102118.94;5034972;27;97311;-54
2023/09/26 00:55:22;;;;;;;1.80;1.70;;;;;;;13.18;57.46;102117.72;5033859;27;97087;-55
2023/09/26 00:57:48;;;;;;;2.10;1.80;;;;;;;13.15;57.25;102115.91;5032529;27;97194;-54
2023/09/26 01:00:16;;;;;;;1.73;1.63;;;;;;;13.14;57.41;102113.59;5030842;27;96946;-54
2023/09/26 01:02:43;;;;;;;1.43;1.33;;;;;;;13.10;57.57;102118.56;5034763;27;96620;-55
2023/09/26 01:05:08;;;;;;;2.03;1.93;;;;;;;13.08;57.59;102119.06;5037731;27;96613;-54
2023/09/26 01:07:35;;;;;;;1.53;1.43;;;;;;;13.07;57.56;102109.22;5035959;27;97618;-54
2023/09/26 01:10:01;;;;;;;2.00;1.90;;;;;;;13.06;57.66;102112.47;5036330;27;97301;-54
2023/09/26 01:12:28;;;;;;;1.87;1.77;;;;;;;13.07;57.88;102111.22;5032690;27;96744;-55
2023/09/26 01:14:54;;;;;;;2.10;2.00;;;;;;;13.04;57.64;102107.38;5037986;27;97205;-54
2023/09/26 01:17:20;;;;;;;1.53;1.40;;;;;;;13.02;57.81;102106.34;5031887;27;97439;-54
2023/09/26 01:19:45;;;;;;;1.70;1.60;;;;;;;13.01;57.82;102105.56;5034523;27;96941;-55
2023/09/26 01:22:15;;;;;;;2.27;2.07;;;;;;;13.00;57.93;102101.25;5033139;27;97185;-54
2023/09/26 01:24:40;;;;;;;1.53;1.43;;;;;;;13.00;57.90;102106.00;5035323;27;97373;-54
2023/09/26 01:27:06;;;;;;;1.90;1.80;;;;;;;12.97;57.81;102099.47;5033630;27;97083;-54
2023/09/26 01:29:31;;;;;;;1.93;1.83;;;;;;;12.97;57.86;102102.22;5031772;27;97346;-54
2023/09/26 01:31:57;;;;;;;2.50;1.80;;;;;;;12.92;57.72;102110.38;5036148;27;97490;-54
2023/09/26 01:34:22;;;;;;;2.07;1.97;;;;;;;12.89;57.85;102101.03;5035873;27;100805;-54
2023/09/26 01:36:47;;;;;;;1.90;1.80;;;;;;;12.89;57.94;102103.81;5032768;27;110151;-54
2023/09/26 01:39:13;;;;;;;1.73;1.63;;;;;;;12.88;58.02;102096.78;5033477;27;108896;-54
2023/09/26 01:41:38;;;;;;;1.73;1.63;;;;;;;12.86;57.94;102102.00;5032177;27;96995;-55
2023/09/26 01:44:05;;;;;;;1.63;1.53;;;;;;;12.88;57.87;102101.53;5035312;27;97402;-54
2023/09/26 01:46:30;;;;;;;2.60;2.17;;;;;;;12.88;58.03;102109.81;5032817;27;97865;-55
2023/09/26 01:48:55;;;;;;;1.73;1.63;;;;;;;12.87;58.04;102103.53;5031704;27;97763;-54
2023/09/26 01:51:21;;;;;;;1.83;1.73;;;;;;;12.85;58.03;102111.53;5036573;27;97055;-54
2023/09/26 01:53:46;;;;;;;2.17;2.00;;;;;;;12.80;57.87;102103.88;5033161;27;96701;-54
2023/09/26 01:56:12;;;;;;;2.13;1.80;;;;;;;12.78;57.89;102109.88;5034931;27;97009;-54
2023/09/26 01:58:37;;;;;;;2.20;2.07;;;;;;;12.76;58.02;102104.06;5034609;27;97104;-54
2023/09/26 02:01:02;;;;;;;3.37;1.90;;;;;;;12.74;57.99;102100.25;5033825;27;97576;-54
2023/09/26 02:03:28;;;;;;;1.87;1.77;;;;;;;12.73;57.91;102098.75;5031258;27;97756;-54
2023/09/26 02:05:56;;;;;;;3.27;2.23;;;;;;;12.72;58.07;102103.50;5031663;27;103804;-54
2023/09/26 02:08:22;;;;;;;2.20;2.00;;;;;;;12.68;57.91;102099.38;5034419;27;101896;-54
2023/09/26 02:10:47;;;;;;;2.10;2.00;;;;;;;12.65;58.13;102103.06;5035402;27;97527;-54
2023/09/26 02:13:12;;;;;;;1.83;1.70;;;;;;;12.64;58.15;102096.81;5031787;27;97250;-55
2023/09/26 02:15:38;;;;;;;1.80;1.70;;;;;;;12.61;58.11;102097.75;5035374;27;100227;-54
2023/09/26 02:18:04;;;;;;;1.90;1.80;;;;;;;12.60;58.11;102100.97;5034004;27;97726;-54
2023/09/26 02:20:29;;;;;;;2.20;2.10;;;;;;;12.58;58.00;102097.94;5031024;27;97377;-55
2023/09/26 02:22:54;;;;;;;2.27;2.07;;;;;;;12.57;58.13;102096.38;5036678;27;97428;-54
2023/09/26 02:25:20;;;;;;;2.20;2.10;;;;;;;12.56;58.05;102098.38;5032742;27;97279;-54
2023/09/26 02:27:47;;;;;;;2.10;2.00;;;;;;;12.51;58.12;102103.78;5032019;27;97129;-55
2023/09/26 02:30:15;;;;;;;2.17;2.07;;;;;;;12.48;58.04;102094.47;5038303;27;97355;-55
2023/09/26 02:32:41;;;;;;;3.00;2.10;;;;;;;12.48;58.19;102099.22;5037263;27;97622;-54
2023/09/26 02:35:09;;;;;;;2.23;2.13;;;;;;;12.48;58.30;102093.69;5036493;27;107674;-54
2023/09/26 02:37:34;;;;;;;1.93;1.70;;;;;;;12.47;58.03;102092.91;5034540;27;97094;-54
2023/09/26 02:40:05;;;;;;;1.70;1.60;;;;;;;12.47;58.22;102092.19;5037168;27;97157;-54
2023/09/26 02:42:32;;;;;;;2.20;2.10;;;;;;;12.47;58.14;102092.19;5035442;27;96731;-54
2023/09/26 02:44:58;;;;;;;1.80;1.70;;;;;;;12.45;58.05;102087.09;5038307;27;97333;-54
2023/09/26 02:47:23;;;;;;;1.70;1.60;;;;;;;12.45;57.96;102089.13;5037831;27;97004;-54
2023/09/26 02:49:49;;;;;;;1.67;1.57;;;;;;;12.41;57.91;102083.00;5037992;27;99660;-54
2023/09/26 02:52:14;;;;;;;1.93;1.70;;;;;;;12.37;57.99;102082.41;5034951;27;98460;-54
2023/09/26 02:54:39;;;;;;;3.73;1.97;;;;;;;12.35;58.11;102084.88;5035703;27;96805;-54
2023/09/26 02:57:04;;;;;;;1.67;1.57;;;;;;;12.32;58.03;102085.84;5038707;27;100878;-54
2023/09/26 02:59:30;;;;;;;1.90;1.80;;;;;;;12.31;58.03;102081.53;5036235;27;97075;-54
2023/09/26 03:01:56;;;;;;;1.83;1.73;;;;;;;12.29;58.05;102075.72;5035044;27;97322;-54
2023/09/26 03:04:21;;;;;;;1.60;1.50;;;;;;;12.24;57.99;102068.06;5036290;27;97506;-54
2023/09/26 03:06:46;;;;;;;1.57;1.47;;;;;;;12.22;57.98;102065.78;5042001;27;109409;-54
2023/09/26 03:09:12;;;;;;;2.47;1.70;;;;;;;12.20;58.26;102078.53;5039306;27;96761;-54
2023/09/26 03:11:37;;;;;;;1.83;1.73;;;;;;;12.17;58.25;102069.19;5037262;27;100277;-54
2023/09/26 03:14:02;;;;;;;1.70;1.60;;;;;;;12.16;58.28;102073.19;5038144;27;97402;-54
2023/09/26 03:16:28;;;;;;;2.00;1.90;;;;;;;12.12;58.10;102080.13;5038724;27;97667;-54
2023/09/26 03:18:56;;;;;;;2.00;1.90;;;;;;;12.08;58.11;102077.50;5039070;27;97034;-54
2023/09/26 03:21:22;;;;;;;1.93;1.77;;;;;;;12.06;58.22;102087.50;5037714;27;96831;-54
2023/09/26 03:23:47;;;;;;;3.53;1.80;;;;;;;12.02;58.21;102087.66;5036894;27;96741;-54
2023/09/26 03:26:14;;;;;;;2.37;2.17;;;;;;;11.99;58.30;102086.59;5036516;27;97212;-54
2023/09/26 03:28:39;;;;;;;1.80;1.70;;;;;;;11.99;58.21;102091.38;5034312;27;97137;-54
2023/09/26 03:31:05;;;;;;;1.70;1.60;;;;;;;11.96;58.21;102082.03;5036389;27;97231;-54
2023/09/26 03:33:32;;;;;;;4.20;2.00;;;;;;;11.94;58.18;102076.22;5036802;27;97291;-54
2023/09/26 03:35:58;;;;;;;2.30;2.10;;;;;;;11.92;58.23;102070.41;5036824;27;97155;-54
2023/09/26 03:38:23;;;;;;;1.60;1.50;;;;;;;11.90;58.36;102070.09;5033901;27;96619;-53
2023/09/26 03:40:56;;;;;;;1.70;1.60;;;;;;;11.89;58.50;102074.09;5034016;27;98156;-54
2023/09/26 03:43:21;;;;;;;1.60;1.50;;;;;;;11.85;58.39;102079.03;5036038;27;96934;-54
2023/09/26 03:45:47;;;;;;;2.50;1.63;;;;;;;11.87;58.45;102071.03;5036076;27;97225;-54
2023/09/26 03:48:12;;;;;;;1.70;1.60;;;;;;;11.87;58.24;102065.53;5028506;27;100832;-54
2023/09/26 03:50:37;;;;;;;2.17;2.07;;;;;;;11.86;58.40;102074.28;5032847;27;101148;-55
2023/09/26 03:53:03;;;;;;;1.80;1.70;;;;;;;11.83;58.18;102067.69;5033962;27;96809;-54
2023/09/26 03:55:28;;;;;;;2.70;2.00;;;;;;;11.80;58.43;102063.09;5033486;27;97174;-55
2023/09/26 03:57:53;;;;;;;1.90;1.80;;;;;;;11.79;58.40;102072.63;5029954;27;96914;-54
2023/09/26 04:00:25;;;;;;;1.90;1.80;;;;;;;11.79;58.30;102061.59;5034344;27;97276;-54
2023/09/26 04:02:51;;;;;;;1.80;1.70;;;;;;;11.78;58.48;102064.78;5032162;27;96818;-54
2023/09/26 04:05:16;;;;;;;2.00;1.87;;;;;;;11.77;58.33;102058.50;5034920;27;97303;-54
2023/09/26 04:07:41;;;;;;;1.70;1.60;;;;;;;11.76;58.48;102058.97;5035786;27;96947;-54
2023/09/26 04:10:08;;;;;;;1.63;1.53;;;;;;;11.75;58.24;102060.22;5032308;27;102479;-54
2023/09/26 04:12:33;;;;;;;1.60;1.50;;;;;;;11.72;58.42;102050.88;5038510;27;97628;-54
2023/09/26 04:14:59;;;;;;;2.27;2.17;;;;;;;11.69;58.21;102046.28;5037628;27;97048;-54
2023/09/26 04:17:24;;;;;;;2.00;1.80;;;;;;;11.68;58.50;102052.28;5035015;27;97290;-54
2023/09/26 04:19:50;;;;;;;1.93;1.83;;;;;;;11.68;58.57;102055.81;5035650;27;97111;-54
2023/09/26 04:22:15;;;;;;;2.00;1.90;;;;;;;11.66;58.43;102055.47;5035834;27;96687;-54
2023/09/26 04:24:40;;;;;;;1.93;1.83;;;;;;;11.66;58.50;102047.22;5034062;27;101015;-54
2023/09/26 04:27:06;;;;;;;1.80;1.70;;;;;;;11.65;58.42;102048.44;5035113;27;97114;-54
2023/09/26 04:29:33;;;;;;;3.00;1.43;;;;;;;11.63;58.28;102037.09;5034096;27;97063;-54
2023/09/26 04:31:59;;;;;;;2.00;1.90;;;;;;;11.63;58.48;102030.81;5035097;27;96961;-54
2023/09/26 04:34:27;;;;;;;1.93;1.83;;;;;;;11.64;58.53;102035.13;5035955;27;97230;-54
2023/09/26 04:36:53;;;;;;;2.23;1.80;;;;;;;11.60;58.56;102029.75;5034115;27;97427;-54
2023/09/26 04:39:18;;;;;;;2.03;1.70;;;;;;;11.63;58.50;102036.34;5035680;27;97006;-54
2023/09/26 04:41:45;;;;;;;3.20;1.53;;;;;;;11.61;58.51;102034.06;5032944;27;97544;-54
2023/09/26 04:44:10;;;;;;;1.80;1.70;;;;;;;11.62;58.68;102035.56;5034418;27;97048;-54
2023/09/26 04:46:36;;;;;;;1.83;1.73;;;;;;;11.64;58.41;102032.38;5036196;27;96801;-54
2023/09/26 04:49:01;;;;;;;1.93;1.83;;;;;;;11.62;58.54;102032.81;5036419;27;102314;-54
2023/09/26 04:51:27;;;;;;;2.63;1.93;;;;;;;11.62;58.52;102018.28;5033005;27;97495;-54
2023/09/26 04:53:52;;;;;;;2.57;1.70;;;;;;;11.59;58.71;102010.94;5033232;27;97070;-54
2023/09/26 04:56:18;;;;;;;6.90;2.20;;;;;;;11.59;58.61;102013.69;5033533;27;97180;-54
2023/09/26 04:58:43;;;;;;;1.80;1.70;;;;;;;11.60;58.60;102013.22;5035572;27;97216;-54
2023/09/26 05:01:12;;;;;;;2.10;2.00;;;;;;;11.59;58.57;102025.50;5032957;27;98491;-54
2023/09/26 05:03:37;;;;;;;1.60;1.50;;;;;;;11.58;58.60;102014.91;5032848;27;97241;-54
2023/09/26 05:06:04;;;;;;;1.80;1.70;;;;;;;11.57;58.73;102019.69;5035666;27;96990;-54
2023/09/26 05:08:29;;;;;;;1.73;1.63;;;;;;;11.56;58.64;102020.13;5037027;27;97214;-54
2023/09/26 05:10:55;;;;;;;2.50;2.10;;;;;;;11.54;58.75;102020.59;5035389;27;96962;-54
2023/09/26 05:13:20;;;;;;;3.07;2.03;;;;;;;11.55;58.68;102030.41;5033364;27;102103;-54
2023/09/26 05:15:45;;;;;;;2.00;1.90;;;;;;;11.56;58.68;102022.88;5034599;27;96786;-54
2023/09/26 05:18:11;;;;;;;1.40;1.40;;;;;;;11.52;58.59;102031.31;5036726;27;97018;-54
2023/09/26 05:20:36;;;;;;;1.60;1.50;;;;;;;11.49;58.68;102028.75;5035605;27;97089;-54
2023/09/26 05:23:03;;;;;;;1.90;1.80;;;;;;;11.45;58.67;102026.13;5033638;27;97038;-54
2023/09/26 05:25:28;;;;;;;2.30;2.10;;;;;;;11.42;58.63;102027.09;5035389;27;96828;-54
2023/09/26 05:27:54;;;;;;;2.93;1.83;;;;;;;11.43;58.86;102028.59;5036172;27;97019;-54
2023/09/26 05:30:19;;;;;;;3.40;2.17;;;;;;;11.40;58.66;102018.50;5033916;27;97352;-54
2023/09/26 05:32:45;;;;;;;2.60;2.40;;;;;;;11.39;58.64;102028.00;5034183;27;107749;-54
2023/09/26 05:35:10;;;;;;;2.20;2.00;;;;;;;11.37;58.56;102024.19;5036241;27;97413;-54
2023/09/26 05:37:37;;;;;;;1.90;1.80;;;;;;;11.36;58.69;102034.44;5033359;27;96783;-54
2023/09/26 05:40:08;;;;;;;3.57;2.27;;;;;;;11.36;58.93;102028.91;5033656;27;97129;-54
2023/09/26 05:42:35;;;;;;;1.73;1.63;;;;;;;11.34;58.87;102031.38;5034281;27;98953;-54
2023/09/26 05:45:02;;;;;;;2.23;2.13;;;;;;;11.35;59.01;102034.91;5034498;27;97390;-54
2023/09/26 05:47:28;;;;;;;3.23;2.33;;;;;;;11.34;59.01;102031.38;5032307;27;99388;-54
2023/09/26 05:49:53;;;;;;;2.57;2.37;;;;;;;11.34;59.05;102031.38;5035684;27;100948;-54
2023/09/26 05:52:20;;;;;;;2.50;2.33;;;;;;;11.34;58.79;102034.13;5035909;27;99074;-54
2023/09/26 05:54:46;;;;;;;4.40;2.00;;;;;;;11.35;58.82;102032.16;5034692;27;96733;-54
2023/09/26 05:57:11;;;;;;;1.83;1.73;;;;;;;11.36;58.87;102037.19;5034289;27;96987;-54
2023/09/26 05:59:36;;;;;;;2.33;2.13;;;;;;;11.37;58.97;102029.69;5033491;27;97339;-54
2023/09/26 06:02:02;;;;;;;1.90;1.80;;;;;;;11.39;59.10;102033.50;5033196;27;97375;-54
2023/09/26 06:04:27;;;;;;;1.80;1.70;;;;;;;11.40;59.04;102031.53;5033338;27;97237;-54
2023/09/26 06:06:52;;;;;;;2.00;1.90;;;;;;;11.42;58.94;102035.34;5036164;27;96839;-54
2023/09/26 06:09:18;;;;;;;2.40;1.97;;;;;;;11.45;58.96;102033.63;5034963;27;96848;-54
2023/09/26 06:11:43;;;;;;;1.70;1.60;;;;;;;11.47;59.10;102028.41;5035692;27;97162;-54
2023/09/26 06:14:08;;;;;;;1.83;1.73;;;;;;;11.49;59.06;102035.00;5030710;27;97571;-54
2023/09/26 06:16:35;;;;;;;2.07;1.87;;;;;;;11.52;58.78;102036.84;5035480;27;97292;-54
2023/09/26 06:19:00;;;;;;;2.20;2.10;;;;;;;11.54;58.82;102041.88;5034721;27;97422;-54
2023/09/26 06:21:25;;;;;;;1.80;1.70;;;;;;;11.54;58.93;102039.13;5035924;27;97206;-54
2023/09/26 06:23:51;;;;;;;2.47;2.27;;;;;;;11.56;59.04;102042.94;5035441;27;97500;-54
2023/09/26 06:26:16;;;;;;;2.10;2.00;;;;;;;11.59;58.97;102041.25;5036019;27;97226;-54
2023/09/26 06:28:42;;;;;;;2.20;1.93;;;;;;;11.61;59.14;102039.56;5035251;27;97138;-54
2023/09/26 06:31:08;;;;;;;1.60;1.50;;;;;;;11.64;58.95;102041.38;5031356;27;97178;-54
2023/09/26 06:33:34;;;;;;;1.80;1.70;;;;;;;11.66;59.16;102035.41;5037116;27;97133;-54
2023/09/26 06:36:00;;;;;;;2.40;1.80;;;;;;;11.68;59.24;102033.75;5034431;27;97139;-54
2023/09/26 06:38:25;;;;;;;1.70;1.60;;;;;;;11.70;59.19;102025.78;5035595;27;97392;-54
2023/09/26 06:41:05;;;;;;;1.90;1.80;;;;;;;11.72;59.60;102031.59;5035855;27;100995;-54
2023/09/26 06:43:31;;;;;;;1.70;1.60;;;;;;;11.74;59.41;102034.63;5033901;27;96814;-54
2023/09/26 06:45:56;;;;;;;1.80;1.67;;;;;;;11.77;59.25;102041.97;5034534;27;96822;-54
2023/09/26 06:48:22;;;;;;;2.20;1.60;;;;;;;11.79;59.42;102042.28;5036280;27;110040;-54
2023/09/26 06:50:47;;;;;;;1.20;1.10;;;;;;;11.84;59.38;102046.38;5033231;27;97503;-54
2023/09/26 06:53:13;;;;;;;1.87;1.77;;;;;;;11.87;59.33;102040.69;5034083;27;97051;-54
2023/09/26 06:55:39;;;;;;;1.43;1.33;;;;;;;11.91;59.59;102037.75;5033593;27;96992;-54
2023/09/26 06:58:05;;;;;;;1.70;1.60;;;;;;;11.97;59.48;102044.16;5035221;27;97154;-54
2023/09/26 07:00:31;;;;;;;3.03;1.47;;;;;;;12.02;59.62;102040.78;5033784;27;97173;-54
2023/09/26 07:02:57;;;;;;;2.00;1.90;;;;;;;12.08;59.79;102051.94;5032048;27;96951;-54
2023/09/26 07:05:23;;;;;;;1.80;1.70;;;;;;;12.11;59.60;102048.22;5037110;27;96724;-54
2023/09/26 07:07:48;;;;;;;1.90;1.80;;;;;;;12.18;59.55;102050.66;5032731;27;96743;-54
2023/09/26 07:10:14;;;;;;;1.93;1.83;;;;;;;12.23;59.75;102044.50;5031790;27;97132;-54
2023/09/26 07:12:40;;;;;;;2.00;1.80;;;;;;;12.28;60.00;102047.34;5036055;27;97154;-54
2023/09/26 07:15:07;;;;;;;3.53;1.67;;;;;;;12.35;59.95;102046.25;5034386;27;96897;-54
2023/09/26 07:17:33;;;;;;;1.47;1.47;;;;;;;12.41;60.09;102058.16;5036814;27;97412;-54
2023/09/26 07:19:59;;;;;;;1.60;1.50;;;;;;;12.49;59.97;102051.06;5036425;27;99148;-54
2023/09/26 07:22:25;;;;;;;1.50;1.40;;;;;;;12.57;59.93;102054.97;5034998;27;97122;-54
2023/09/26 07:24:50;;;;;;;2.53;1.73;;;;;;;12.66;60.08;102060.44;5038430;27;96885;-54
2023/09/26 07:27:17;;;;;;;1.77;1.67;;;;;;;12.76;60.21;102046.06;5037236;27;97075;-54
2023/09/26 07:29:46;;;;;;;1.80;1.57;;;;;;;12.89;60.22;102048.56;5038931;27;97497;-54
2023/09/26 07:32:12;;;;;;;1.67;1.40;;;;;;;12.97;60.25;102044.22;5035455;27;97126;-54
2023/09/26 07:34:37;;;;;;;2.70;1.57;;;;;;;13.08;60.08;102041.69;5036420;27;96984;-54
2023/09/26 07:37:03;;;;;;;1.63;1.50;;;;;;;13.20;60.45;102037.84;5035552;27;98318;-54
2023/09/26 07:39:28;;;;;;;1.93;1.83;;;;;;;13.30;60.40;102041.28;5036309;27;101035;-54
2023/09/26 07:41:53;;;;;;;4.00;2.73;;;;;;;13.38;60.40;102040.44;5035868;27;102332;-54
2023/09/26 07:44:19;;;;;;;1.93;1.83;;;;;;;13.51;60.43;102040.13;5035333;27;98411;-54
2023/09/26 07:46:44;;;;;;;1.93;1.63;;;;;;;13.63;60.30;102038.31;5036301;27;105256;-54
2023/09/26 07:49:10;;;;;;;2.20;2.10;;;;;;;13.71;60.56;102036.66;5041212;27;97655;-54
2023/09/26 07:51:35;;;;;;;2.13;1.93;;;;;;;13.83;60.53;102043.88;5035799;27;97148;-54
2023/09/26 07:54:01;;;;;;;2.40;1.80;;;;;;;13.96;60.84;102056.16;5037189;27;99674;-54
2023/09/26 07:56:26;;;;;;;2.10;1.73;;;;;;;14.09;60.58;102051.03;5034335;27;97318;-54
2023/09/26 07:58:52;;;;;;;2.70;2.17;;;;;;;14.21;60.85;102052.72;5035273;27;104328;-54
2023/09/26 08:01:17;;;;;;;2.23;2.00;;;;;;;14.37;60.82;102057.00;5039200;27;96838;-54
2023/09/26 08:03:43;;;;;;;3.07;2.50;;;;;;;14.49;60.83;102050.34;5036858;27;96854;-54
2023/09/26 08:06:09;;;;;;;3.50;2.23;;;;;;;14.62;60.94;102041.66;5036795;27;100486;-54
2023/09/26 08:08:35;;;;;;;6.10;2.10;;;;;;;14.73;60.88;102042.56;5036176;27;97247;-54
2023/09/26 08:11:08;;;;;;;2.60;2.40;;;;;;;14.90;61.20;102037.94;5038231;27;97182;-54
2023/09/26 08:13:34;;;;;;;2.13;2.00;;;;;;;15.03;61.17;102034.78;5035976;27;96924;-55
2023/09/26 08:15:59;;;;;;;2.30;2.10;;;;;;;15.20;61.19;102034.97;5037755;27;97820;-55
2023/09/26 08:18:25;;;;;;;2.30;2.20;;;;;;;15.37;61.32;102044.94;5037234;27;96818;-54
2023/09/26 08:20:55;;;;;;;2.57;2.37;;;;;;;15.57;61.41;102038.56;5034540;27;97230;-54
2023/09/26 08:23:28;;;;;;;2.60;2.13;;;;;;;15.80;61.23;102045.78;5037770;27;96849;-54
2023/09/26 08:26:01;;;;;;;2.57;2.30;;;;;;;16.04;61.57;102051.75;5036564;27;97393;-54
2023/09/26 08:28:28;;;;;;;4.30;2.20;;;;;;;16.28;61.13;102049.34;5037134;27;97914;-54
2023/09/26 08:30:57;;;;;;;2.47;2.37;;;;;;;16.55;61.14;102038.88;5034918;27;97129;-54
2023/09/26 08:33:24;;;;;;;2.50;2.30;;;;;;;16.81;60.80;102042.22;5038054;27;97132;-54
2023/09/26 08:35:51;;;;;;;3.00;2.80;;;;;;;17.06;60.58;102041.25;5041792;27;97938;-54
2023/09/26 08:38:17;;;;;;;2.30;2.13;;;;;;;17.32;60.38;102041.78;5036034;27;97243;-54
2023/09/26 08:40:43;;;;;;;1.97;1.87;;;;;;;17.54;60.23;102050.16;5037697;27;96915;-55
2023/09/26 08:43:12;;;;;;;1.83;1.73;;;;;;;17.73;60.19;102040.03;5041560;27;97139;-55
2023/09/26 08:45:39;;;;;;;2.13;1.93;;;;;;;17.84;59.92;102034.41;5031796;27;96931;-55
2023/09/26 08:48:05;;;;;;;2.60;2.33;;;;;;;17.90;59.95;102037.19;5033882;27;97274;-55
2023/09/26 08:50:30;;;;;;;2.67;2.43;;;;;;;17.97;59.97;102031.84;5034797;27;96929;-55
2023/09/26 08:52:58;;;;;;;2.17;2.07;;;;;;;18.07;60.03;102037.16;5038501;27;96806;-55
2023/09/26 08:55:25;;;;;;;2.20;2.00;;;;;;;18.19;59.86;102030.28;5036457;27;97533;-55
2023/09/26 08:57:50;;;;;;;1.97;1.87;;;;;;;18.30;59.92;102021.88;5036048;27;96933;-55
2023/09/26 09:00:17;;;;;;;2.00;1.90;;;;;;;18.38;60.00;102031.97;5033495;27;96753;-55
2023/09/26 09:02:43;;;;;;;2.60;2.40;;;;;;;18.48;59.81;102022.06;5033221;27;97210;-55
2023/09/26 09:05:09;;;;;;;2.83;2.17;;;;;;;18.60;59.84;102020.00;5037809;27;98095;-55
2023/09/26 09:07:38;;;;;;;2.17;2.07;;;;;;;18.69;59.75;102028.06;5037014;27;97006;-55
2023/09/26 09:10:10;;;;;;;2.07;1.80;;;;;;;18.76;59.68;102015.59;5035471;27;100779;-55
2023/09/26 09:12:37;;;;;;;4.13;2.10;;;;;;;18.82;59.67;102017.06;5038413;27;97264;-55
2023/09/26 09:15:17;;;;;;;2.00;1.73;;;;;;;18.96;59.39;102018.72;5038670;27;97344;-55
2023/09/26 09:17:43;;;;;;;2.03;1.83;;;;;;;19.10;59.17;102012.03;5035869;27;97513;-55
2023/09/26 09:20:10;;;;;;;2.47;2.20;;;;;;;19.17;59.16;102014.28;5034228;27;97134;-55
2023/09/26 09:22:35;;;;;;;2.00;1.90;;;;;;;19.26;58.84;102007.63;5034507;27;96860;-55
2023/09/26 09:25:01;;;;;;;2.73;1.83;;;;;;;19.41;58.76;102011.56;5035646;27;96902;-54
2023/09/26 09:27:43;;;;;;;1.80;1.70;;;;;;;19.52;58.12;102007.16;5037026;27;97474;-55
2023/09/26 09:30:12;;;;;;;1.80;1.70;;;;;;;19.62;58.31;102011.09;5040046;27;97258;-55
2023/09/26 09:32:42;;;;;;;1.93;1.73;;;;;;;19.77;58.01;102000.28;5033185;27;96956;-55
2023/09/26 09:35:13;;;;;;;1.70;1.60;;;;;;;19.83;57.95;102006.59;5035248;27;96912;-55
2023/09/26 09:37:40;;;;;;;1.87;1.43;;;;;;;19.90;57.68;102003.19;5036054;27;98146;-55
2023/09/26 09:40:06;;;;;;;3.20;1.60;;;;;;;20.03;57.32;102001.25;5038670;27;97241;-56
2023/09/26 09:42:31;;;;;;;1.87;1.67;;;;;;;20.17;57.65;102002.88;5036573;27;97059;-55
2023/09/26 09:44:57;;;;;;;1.97;1.87;;;;;;;20.30;57.20;102004.28;5031374;27;97618;-55
2023/09/26 09:47:24;;;;;;;2.73;1.50;;;;;;;20.42;57.00;102003.59;5036553;27;97215;-55
2023/09/26 09:49:51;;;;;;;2.03;1.40;;;;;;;20.50;57.08;102010.09;5035850;27;96883;-55
2023/09/26 09:52:18;;;;;;;1.83;1.60;;;;;;;20.55;56.43;101998.06;5035324;27;97346;-55
2023/09/26 09:54:45;;;;;;;1.53;1.43;;;;;;;20.64;56.37;101992.09;5035166;27;97581;-55
2023/09/26 09:57:14;;;;;;;2.60;1.30;;;;;;;20.76;56.18;101993.47;5035968;27;97033;-55
2023/09/26 09:59:41;;;;;;;3.10;1.43;;;;;;;20.89;56.37;101989.94;5032151;27;96776;-55
2023/09/26 10:02:10;;;;;;;1.50;1.40;;;;;;;21.00;56.15;101991.81;5034421;27;97210;-55
2023/09/26 10:04:37;;;;;;;1.87;1.73;;;;;;;21.09;55.60;101983.06;5033439;27;97305;-55
2023/09/26 10:07:03;;;;;;;1.43;1.33;;;;;;;21.16;55.65;101979.63;5035049;27;97312;-55
2023/09/26 10:09:31;;;;;;;1.33;1.23;;;;;;;21.24;55.54;101980.50;5034760;27;97082;-55
2023/09/26 10:11:59;;;;;;;2.60;1.40;;;;;;;21.31;55.47;101977.09;5035035;27;97300;-55
2023/09/26 10:14:25;;;;;;;1.80;1.53;;;;;;;21.32;55.38;101978.56;5035065;27;96991;-55
2023/09/26 10:16:53;;;;;;;3.10;1.67;;;;;;;21.32;55.15;101981.38;5038605;27;96621;-55
2023/09/26 10:19:19;;;;;;;2.80;1.53;;;;;;;21.42;55.25;101980.44;5036071;27;97053;-56
2023/09/26 10:21:44;;;;;;;2.37;1.47;;;;;;;21.51;55.03;101973.66;5038267;27;97386;-55
2023/09/26 10:24:09;;;;;;;1.97;1.80;;;;;;;21.60;54.83;101971.19;5032528;27;99522;-56
2023/09/26 10:26:40;;;;;;;1.20;1.10;;;;;;;21.75;54.34;101973.47;5033744;27;97348;-56
2023/09/26 10:29:20;;;;;;;1.50;1.40;;;;;;;21.87;54.40;101957.19;5031747;27;97149;-55
2023/09/26 10:31:53;;;;;;;1.33;1.20;;;;;;;21.99;54.14;101958.50;5034817;27;96853;-55
2023/09/26 10:34:31;;;;;;;1.70;1.60;;;;;;;22.11;53.18;101949.31;5030919;27;97195;-55
2023/09/26 10:36:58;;;;;;;1.80;1.30;;;;;;;22.22;53.58;101946.25;5035229;27;97321;-55
2023/09/26 10:39:35;;;;;;;1.60;1.50;;;;;;;22.36;52.63;101956.16;5034508;27;96961;-56
2023/09/26 10:42:42;;;;;;;3.57;1.27;;;;;;;22.43;52.93;101953.97;5034489;27;97101;-56
2023/09/26 10:45:09;;;;;;;1.90;1.23;;;;;;;22.54;53.31;101943.22;4992955;28;97377;-56
2023/09/26 10:47:37;;;;;;;1.30;1.20;;;;;;;22.63;53.11;101947.69;4994421;28;97457;-56
2023/09/26 10:50:05;;;;;;;1.07;1.07;;;;;;;22.75;52.76;101944.06;5012217;27;96994;-56
2023/09/26 10:52:31;;;;;;;1.60;1.50;;;;;;;22.87;52.62;101950.88;5038449;27;97024;-56
2023/09/26 10:54:56;;;;;;;2.70;1.27;;;;;;;22.95;52.56;101953.78;5038578;27;96635;-56
2023/09/26 10:57:22;;;;;;;1.90;1.40;;;;;;;23.03;52.48;101946.16;5037030;27;96672;-56
2023/09/26 10:59:49;;;;;;;1.50;1.40;;;;;;;23.12;52.54;101945.69;5036026;27;97142;-56
2023/09/26 11:02:14;;;;;;;1.63;1.53;;;;;;;23.24;52.33;101946.88;5037639;27;97339;-56
2023/09/26 11:04:40;;;;;;;1.30;1.20;;;;;;;23.36;51.76;101944.56;5039546;27;96798;-56
2023/09/26 11:07:05;;;;;;;4.53;1.53;;;;;;;23.49;51.54;101939.63;5044242;27;100210;-56
2023/09/26 11:09:32;;;;;;;1.40;1.07;;;;;;;23.61;51.43;101932.38;5037501;27;97111;-56
2023/09/26 11:11:58;;;;;;;1.40;1.30;;;;;;;23.75;51.23;101941.44;5035269;27;97397;-56
2023/09/26 11:14:24;;;;;;;1.23;1.03;;;;;;;23.84;50.85;101932.50;5037603;27;97520;-56
2023/09/26 11:16:51;;;;;;;5.90;1.40;;;;;;;23.95;50.02;101926.56;5038539;27;97029;-56
2023/09/26 11:19:16;;;;;;;1.20;1.10;;;;;;;24.03;50.15;101932.19;5039144;27;97188;-56
2023/09/26 11:21:42;;;;;;;3.17;1.33;;;;;;;24.12;49.73;101934.50;5040823;27;96977;-56